Time;durP1;ratioP1;P1;durP2;ratioP2;P2;SDS_P1;SDS_P2;PMS_P1;PMS_P2;Temp;Humidity;BMP_temperature;BMP_pressure;BME280_temperature;BME280_humidity;BME280_pressure;Samples;Min_cycle;Max_cycle;Signal;HPM_P1;HPM_P2
2023/02/21 02:16:05;;;;;;;4.80;2.10;;;;;;;8.97;89.09;97308.67;106097;1255;61353;-77
2023/02/21 02:18:44;;;;;;;;;;;;;;;8.95;89.24;97303.63;105998;1259;74537;-78
2023/02/21 02:21:30;;;;;;;4.80;2.20;;;;;;;8.94;89.38;97301.80;106048;1254;70313;-78
2023/02/21 02:24:30;;;;;;;3.80;2.10;;;;;;;8.95;89.64;97298.06;106045;1255;71466;-77
2023/02/21 02:27:35;;;;;;;6.60;2.00;;;;;;;9.02;89.76;97305.98;106021;1254;61341;-77
2023/02/21 02:30:17;;;;;;;4.50;1.70;;;;;;;9.03;89.55;97298.67;105992;1257;61211;-76
2023/02/21 02:32:56;;;;;;;4.60;2.20;;;;;;;9.04;89.88;97299.46;106067;1260;74393;-76
2023/02/21 02:35:43;;;;;;;1.90;1.20;;;;;;;9.02;90.15;97303.49;106038;1255;71408;-76
2023/02/21 02:38:18;;;;;;;3.40;1.60;;;;;;;9.01;90.17;97304.43;106033;1259;71716;-76
2023/02/21 02:40:56;;;;;;;3.30;1.60;;;;;;;9.00;90.24;97300.34;106259;1260;61234;-76
2023/02/21 02:43:29;;;;;;;4.70;1.30;;;;;;;9.00;90.54;97297.09;105992;1254;61241;-77
2023/02/21 02:46:08;;;;;;;3.90;1.90;;;;;;;9.01;90.43;97295.14;106038;1254;74092;-76
2023/02/21 02:48:49;;;;;;;5.70;1.70;;;;;;;9.03;90.53;97296.89;106037;1257;71032;-76
2023/02/21 02:51:15;;;;;;;2.70;1.90;;;;;;;9.03;90.63;97300.46;105986;1258;71899;-77
2023/02/21 02:53:43;;;;;;;4.20;2.00;;;;;;;9.00;90.85;97298.17;106007;1257;61276;-77
2023/02/21 02:56:12;;;;;;;4.50;2.00;;;;;;;8.97;90.72;97302.36;105971;1260;61204;-76
2023/02/21 02:58:44;;;;;;;;;;;;;;;8.94;90.97;97297.53;106046;1259;74792;-76
2023/02/21 03:01:16;;;;;;;3.50;1.60;;;;;;;8.91;90.96;97302.05;105998;1258;71906;-77
2023/02/21 03:03:55;;;;;;;6.10;2.20;;;;;;;8.88;91.23;97306.46;105923;1257;71702;-76
2023/02/21 03:06:24;;;;;;;8.90;1.90;;;;;;;8.86;91.22;97306.04;105925;1257;61237;-76
2023/02/21 03:09:09;;;;;;;4.80;2.30;;;;;;;8.82;91.55;97301.38;105975;1260;61337;-77
2023/02/21 03:11:37;;;;;;;4.30;1.60;;;;;;;8.80;91.64;97301.45;105954;1259;74595;-77
2023/02/21 03:14:12;;;;;;;8.40;2.00;;;;;;;8.82;91.90;97296.46;105951;1258;71084;-76
2023/02/21 03:16:47;;;;;;;2.20;1.30;;;;;;;8.85;92.12;97294.59;106008;1260;71456;-76
2023/02/21 03:19:16;;;;;;;4.20;1.70;;;;;;;8.85;91.94;97294.64;105994;1259;62166;-77
2023/02/21 03:21:56;;;;;;;6.20;2.00;;;;;;;8.84;92.29;97293.27;105960;1260;61164;-77
2023/02/21 03:24:23;;;;;;;2.70;1.80;;;;;;;8.84;92.27;97289.86;106086;1255;73874;-76
2023/02/21 03:26:51;;;;;;;2.80;1.30;;;;;;;8.85;92.55;97292.00;105947;1257;61173;-76
2023/02/21 03:29:18;;;;;;;2.50;1.30;;;;;;;8.83;92.75;97289.38;105887;1257;71456;-79
2023/02/21 03:31:54;;;;;;;2.20;1.50;;;;;;;8.85;92.90;97297.89;105942;1260;61228;-78
2023/02/21 03:34:20;;;;;;;3.30;1.20;;;;;;;8.84;92.76;97298.34;105978;1255;61247;-78
2023/02/21 03:36:47;;;;;;;2.20;1.50;;;;;;;8.84;92.66;97296.29;106055;1254;62148;-79
2023/02/21 03:39:13;;;;;;;4.20;1.70;;;;;;;8.85;92.93;97299.52;106048;1263;61276;-77
2023/02/21 03:41:40;;;;;;;3.50;1.50;;;;;;;8.87;92.97;97308.08;106019;1254;61359;-79
2023/02/21 03:44:06;;;;;;;3.00;1.30;;;;;;;8.85;92.91;97305.77;106051;1254;61272;-78
2023/02/21 03:46:33;;;;;;;2.30;1.50;;;;;;;8.82;93.06;97302.04;106081;1258;61237;-76
2023/02/21 03:48:59;;;;;;;3.30;1.20;;;;;;;8.86;93.30;97299.92;106205;1254;61269;-76
2023/02/21 03:51:26;;;;;;;2.20;1.30;;;;;;;8.88;93.31;97300.07;106224;1254;61298;-77
2023/02/21 03:53:52;;;;;;;3.40;1.40;;;;;;;8.88;93.40;97300.51;106211;1254;61355;-77
2023/02/21 03:56:19;;;;;;;4.30;1.60;;;;;;;8.89;93.41;97299.00;106199;1258;61343;-76
2023/02/21 03:58:45;;;;;;;2.60;1.60;;;;;;;8.89;93.40;97295.11;106173;1254;63411;-78
2023/02/21 04:01:11;;;;;;;2.00;1.40;;;;;;;8.88;93.46;97305.42;106209;1254;61342;-77
2023/02/21 04:03:38;;;;;;;2.30;1.50;;;;;;;8.87;93.54;97307.70;106066;1255;61429;-77
2023/02/21 04:06:04;;;;;;;3.70;1.20;;;;;;;8.88;93.44;97302.02;105991;1254;61260;-76
2023/02/21 04:08:31;;;;;;;4.60;1.10;;;;;;;8.91;93.54;97306.42;106023;1258;61282;-77
2023/02/21 04:10:57;;;;;;;1.90;1.20;;;;;;;8.92;93.55;97311.77;106034;1254;61225;-76
2023/02/21 04:13:24;;;;;;;5.50;3.00;;;;;;;8.94;93.51;97311.90;106070;1254;61448;-77
2023/02/21 04:15:50;;;;;;;2.90;1.20;;;;;;;8.95;93.54;97311.34;106041;1254;61709;-77
2023/02/21 04:18:17;;;;;;;2.10;1.30;;;;;;;8.95;93.53;97305.73;106059;1254;61339;-78
2023/02/21 04:20:45;;;;;;;2.60;1.20;;;;;;;8.96;93.33;97303.70;106158;1254;61265;-77
2023/02/21 04:23:16;;;;;;;3.70;2.00;;;;;;;8.97;93.42;97306.36;106086;1254;61256;-78
2023/02/21 04:25:42;;;;;;;5.20;1.70;;;;;;;8.96;93.30;97297.23;106044;1254;74926;-76
2023/02/21 04:28:09;;;;;;;1.90;1.40;;;;;;;8.97;93.43;97301.77;106051;1259;61173;-77
2023/02/21 04:30:36;;;;;;;2.80;1.30;;;;;;;8.98;93.66;97297.66;106031;1259;61710;-77
2023/02/21 04:33:02;;;;;;;4.10;2.20;;;;;;;8.98;93.62;97301.93;106006;1254;61435;-77
2023/02/21 04:35:29;;;;;;;4.50;3.10;;;;;;;8.96;93.73;97301.49;105970;1254;61177;-77
2023/02/21 04:37:55;;;;;;;3.10;1.60;;;;;;;8.95;93.75;97298.23;106067;1257;73446;-77
2023/02/21 04:40:22;;;;;;;3.00;2.00;;;;;;;8.95;93.69;97300.44;106030;1261;61104;-77
2023/02/21 04:42:48;;;;;;;4.70;2.30;;;;;;;8.92;93.91;97302.05;106047;1254;61226;-76
2023/02/21 04:45:15;;;;;;;4.00;2.50;;;;;;;8.90;94.02;97301.58;106054;1254;61362;-77
2023/02/21 04:47:41;;;;;;;2.00;1.40;;;;;;;8.91;93.96;97296.98;106056;1254;61333;-77
2023/02/21 04:50:07;;;;;;;2.10;1.80;;;;;;;8.90;94.08;97302.94;106065;1257;62154;-77
2023/02/21 04:52:34;;;;;;;5.20;1.50;;;;;;;8.89;94.19;97309.16;105994;1258;61246;-77
2023/02/21 04:55:00;;;;;;;4.90;1.30;;;;;;;8.88;94.44;97314.88;105996;1254;61342;-77
2023/02/21 04:57:27;;;;;;;3.10;1.30;;;;;;;8.87;94.65;97325.58;106062;1254;61417;-77
2023/02/21 04:59:57;;;;;;;3.60;1.70;;;;;;;8.87;94.87;97319.85;106028;1254;62896;-77
2023/02/21 05:02:23;;;;;;;3.30;1.70;;;;;;;8.86;95.33;97306.90;105985;1254;74568;-77
2023/02/21 05:04:50;;;;;;;4.20;1.50;;;;;;;8.83;95.57;97313.70;105993;1254;72272;-77
2023/02/21 05:07:17;;;;;;;3.10;2.40;;;;;;;8.79;96.32;97312.81;105997;1254;72600;-76
2023/02/21 05:09:44;;;;;;;6.00;2.30;;;;;;;8.73;96.83;97317.63;106056;1254;61256;-77
2023/02/21 05:12:10;;;;;;;3.70;1.40;;;;;;;8.67;96.90;97323.19;106131;1259;61190;-76
2023/02/21 05:14:38;;;;;;;2.90;1.90;;;;;;;8.63;97.18;97321.06;106025;1254;73398;-76
2023/02/21 05:17:04;;;;;;;2.90;1.50;;;;;;;8.60;97.70;97324.44;106107;1259;70253;-76
2023/02/21 05:19:31;;;;;;;9.60;5.50;;;;;;;8.56;97.66;97328.69;106093;1254;61813;-77
2023/02/21 05:21:59;;;;;;;2.30;1.50;;;;;;;8.52;98.06;97323.70;106104;1254;61224;-77
2023/02/21 05:24:26;;;;;;;4.30;1.60;;;;;;;8.50;98.05;97325.05;106071;1254;61236;-76
2023/02/21 05:26:53;;;;;;;3.40;2.00;;;;;;;8.49;98.32;97325.73;106021;1254;74284;-78
2023/02/21 05:29:20;;;;;;;3.40;1.90;;;;;;;8.48;98.12;97325.30;105996;1254;70233;-78
2023/02/21 05:31:46;;;;;;;2.40;1.60;;;;;;;8.46;98.20;97328.13;105986;1260;61343;-76
2023/02/21 05:34:13;;;;;;;3.90;2.10;;;;;;;8.45;98.26;97328.28;106021;1259;61346;-77
2023/02/21 05:36:39;;;;;;;4.00;2.70;;;;;;;8.46;98.36;97327.64;106026;1254;61145;-76
2023/02/21 05:39:06;;;;;;;3.20;2.60;;;;;;;8.45;98.35;97330.83;106248;1254;61269;-77
2023/02/21 05:41:34;;;;;;;5.50;2.50;;;;;;;8.43;98.55;97327.54;106075;1254;61254;-76
2023/02/21 05:44:01;;;;;;;5.20;2.40;;;;;;;8.43;98.36;97332.19;106308;1258;71560;-77
2023/02/21 05:46:29;;;;;;;7.50;3.10;;;;;;;8.40;98.86;97341.51;106017;1254;61353;-76
2023/02/21 05:48:56;;;;;;;20.80;7.20;;;;;;;8.39;99.24;97341.73;106038;1254;61180;-77
2023/02/21 05:51:22;;;;;;;13.20;6.80;;;;;;;8.37;99.59;97348.43;106016;1259;74517;-77
2023/02/21 05:53:49;;;;;;;11.00;6.30;;;;;;;8.34;99.82;97345.90;106052;1259;69368;-77
2023/02/21 05:56:16;;;;;;;8.30;6.80;;;;;;;8.32;100.00;97344.51;106017;1259;71975;-77
2023/02/21 05:58:43;;;;;;;12.00;4.90;;;;;;;8.30;100.00;97349.23;106188;1254;61237;-77
2023/02/21 06:01:09;;;;;;;7.00;3.80;;;;;;;8.31;100.00;97341.13;106050;1254;61212;-76
2023/02/21 06:03:36;;;;;;;6.40;4.10;;;;;;;8.31;100.00;97338.36;106134;1254;61254;-79
2023/02/21 06:06:02;;;;;;;8.20;3.30;;;;;;;8.29;100.00;97338.86;107743;1254;61205;-76
2023/02/21 06:08:29;;;;;;;14.20;8.20;;;;;;;8.28;100.00;97339.23;106360;1254;61234;-77
2023/02/21 06:10:55;;;;;;;9.00;4.70;;;;;;;8.26;100.00;97339.04;106392;1257;61346;-77
2023/02/21 06:13:21;;;;;;;5.40;3.60;;;;;;;8.27;100.00;97344.96;106275;1254;61352;-77
2023/02/21 06:15:48;;;;;;;11.20;6.50;;;;;;;8.27;100.00;97337.95;107456;1254;61262;-76
2023/02/21 06:18:15;;;;;;;7.90;4.60;;;;;;;8.28;100.00;97341.34;106250;1254;61298;-77
2023/02/21 06:20:42;;;;;;;8.10;6.30;;;;;;;8.27;100.00;97346.25;106409;1254;61336;-77
2023/02/21 06:23:08;;;;;;;9.70;8.00;;;;;;;8.26;100.00;97350.38;106056;1257;61341;-77
2023/02/21 06:25:35;;;;;;;6.20;5.60;;;;;;;8.25;100.00;97357.45;107917;1254;61201;-78
2023/02/21 06:28:02;;;;;;;4.40;2.60;;;;;;;8.25;100.00;97356.16;106498;1254;73824;-78
2023/02/21 06:30:28;;;;;;;6.30;2.40;;;;;;;8.27;100.00;97362.77;106131;1254;71094;-76
2023/02/21 06:32:55;;;;;;;5.00;2.90;;;;;;;8.29;100.00;97365.09;106247;1256;61092;-77
2023/02/21 06:35:21;;;;;;;4.40;2.10;;;;;;;8.32;100.00;97363.19;107608;1254;61179;-77
2023/02/21 06:37:48;;;;;;;2.60;1.40;;;;;;;8.38;100.00;97367.05;106482;1254;61222;-77
2023/02/21 06:40:14;;;;;;;3.60;2.10;;;;;;;8.47;100.00;97366.78;106115;1258;61255;-79
2023/02/21 06:42:41;;;;;;;3.00;2.20;;;;;;;8.53;100.00;97365.32;106185;1258;61287;-78
2023/02/21 06:45:07;;;;;;;3.80;1.50;;;;;;;8.61;100.00;97358.41;107308;1254;61237;-78
2023/02/21 06:47:34;;;;;;;4.80;2.20;;;;;;;8.71;100.00;97365.51;107148;1254;62392;-78
2023/02/21 06:50:00;;;;;;;3.20;2.40;;;;;;;8.80;100.00;97359.92;106513;1254;61752;-78
2023/02/21 06:52:27;;;;;;;5.50;3.50;;;;;;;8.84;100.00;97365.61;106566;1254;61280;-77
2023/02/21 06:54:53;;;;;;;6.00;4.10;;;;;;;8.88;100.00;97359.08;107038;1254;61254;-77
2023/02/21 06:57:19;;;;;;;9.00;4.00;;;;;;;8.90;100.00;97363.89;107713;1254;60257;-78
2023/02/21 06:59:46;;;;;;;6.90;3.70;;;;;;;8.89;100.00;97372.81;106105;1254;61378;-78
2023/02/21 07:02:17;;;;;;;3.60;2.50;;;;;;;8.91;100.00;97372.30;106516;1254;61171;-78
2023/02/21 07:04:44;;;;;;;7.70;3.70;;;;;;;8.92;100.00;97379.04;107490;1253;74464;-75
2023/02/21 07:07:11;;;;;;;9.70;6.20;;;;;;;8.93;100.00;97372.33;108572;1253;70810;-76
2023/02/21 07:09:37;;;;;;;4.00;2.30;;;;;;;8.98;100.00;97373.21;106422;1254;61283;-79
2023/02/21 07:12:04;;;;;;;2.80;1.50;;;;;;;9.02;99.92;97377.31;106444;1253;61340;-77
2023/02/21 07:14:32;;;;;;;1.20;1.10;;;;;;;9.05;99.86;97379.30;106757;1254;61246;-77
2023/02/21 07:16:58;;;;;;;3.30;1.60;;;;;;;9.09;99.94;97380.02;107829;1255;73231;-78
2023/02/21 07:19:25;;;;;;;2.80;1.70;;;;;;;9.17;99.55;97384.92;106421;1254;61168;-79
2023/02/21 07:21:51;;;;;;;3.30;1.40;;;;;;;9.17;99.33;97388.39;106157;1258;61323;-78
2023/02/21 07:24:18;;;;;;;2.10;1.40;;;;;;;9.18;99.01;97396.75;106167;1259;61260;-78
2023/02/21 07:26:44;;;;;;;4.10;1.20;;;;;;;9.25;98.50;97400.02;108077;1254;61287;-77
2023/02/21 07:29:11;;;;;;;2.20;1.50;;;;;;;9.29;98.47;97399.60;106739;1254;61234;-76
2023/02/21 07:31:37;;;;;;;2.80;1.70;;;;;;;9.32;98.88;97414.89;106405;1254;61198;-77
2023/02/21 07:34:03;;;;;;;2.70;1.90;;;;;;;9.28;99.68;97417.67;106492;1254;61320;-78
2023/02/21 07:36:30;;;;;;;2.20;1.60;;;;;;;9.26;99.99;97420.29;108041;1256;61332;-75
2023/02/21 07:38:57;;;;;;;8.50;5.60;;;;;;;9.22;100.00;97415.95;106273;1254;61288;-78
2023/02/21 07:41:23;;;;;;;6.10;3.60;;;;;;;9.20;100.00;97419.58;106295;1256;61473;-77
2023/02/21 07:43:50;;;;;;;6.00;2.00;;;;;;;9.19;100.00;97416.85;107805;1254;61301;-75
2023/02/21 07:46:17;;;;;;;4.10;2.20;;;;;;;9.12;100.00;97418.95;108943;1254;59513;-77
2023/02/21 07:48:43;;;;;;;2.10;1.40;;;;;;;9.12;100.00;97420.48;108536;1254;59181;-76
2023/02/21 07:51:10;;;;;;;8.90;4.40;;;;;;;9.09;100.00;97421.76;106798;1254;61211;-75
2023/02/21 07:53:36;;;;;;;6.60;3.70;;;;;;;9.05;100.00;97417.29;106295;1254;61265;-77
2023/02/21 07:56:03;;;;;;;7.00;3.70;;;;;;;9.08;100.00;97425.38;108141;1254;61215;-75
2023/02/21 07:58:31;;;;;;;32.20;18.10;;;;;;;9.08;100.00;97420.73;106671;1254;72569;-78
2023/02/21 08:00:57;;;;;;;6.40;3.30;;;;;;;9.10;100.00;97433.58;107853;1254;61192;-77
2023/02/21 08:03:24;;;;;;;2.70;1.40;;;;;;;9.12;100.00;97442.27;106395;1254;61245;-76
2023/02/21 08:05:50;;;;;;;3.30;2.20;;;;;;;9.11;100.00;97425.30;107916;1254;74053;-77
2023/02/21 08:08:17;;;;;;;9.60;4.80;;;;;;;9.11;100.00;97434.59;106669;1257;61266;-77
2023/02/21 08:10:43;;;;;;;9.20;4.30;;;;;;;9.12;100.00;97435.45;106387;1254;60684;-76
2023/02/21 08:13:10;;;;;;;4.30;2.00;;;;;;;9.19;100.00;97428.41;106170;1257;61231;-76
2023/02/21 08:15:37;;;;;;;3.50;1.40;;;;;;;9.25;100.00;97425.45;108341;1256;59154;-79
2023/02/21 08:18:03;;;;;;;5.40;1.50;;;;;;;9.24;100.00;97424.38;106161;1259;73657;-77
2023/02/21 08:20:29;;;;;;;2.60;1.30;;;;;;;9.32;100.00;97432.29;106258;1258;61098;-78
2023/02/21 08:22:56;;;;;;;2.00;1.20;;;;;;;9.39;100.00;97435.41;106343;1254;61264;-76
2023/02/21 08:25:23;;;;;;;3.20;1.80;;;;;;;9.43;100.00;97432.52;107182;1254;61183;-77
2023/02/21 08:27:53;;;;;;;2.20;1.20;;;;;;;9.45;100.00;97429.50;109239;1255;59279;-78
2023/02/21 08:30:20;;;;;;;2.90;1.10;;;;;;;9.52;100.00;97437.98;107457;1254;75725;-78
2023/02/21 08:32:47;;;;;;;2.00;1.30;;;;;;;9.57;100.00;97442.36;107621;1256;71699;-77
2023/02/21 08:35:14;;;;;;;2.40;1.10;;;;;;;9.60;100.00;97444.55;108552;1254;72525;-77
2023/02/21 08:37:45;;;;;;;1.90;1.10;;;;;;;9.61;100.00;97444.70;107469;1254;61259;-77
2023/02/21 08:40:12;;;;;;;2.70;1.10;;;;;;;9.67;100.00;97454.02;107292;1254;60558;-78
2023/02/21 08:42:39;;;;;;;3.00;1.30;;;;;;;9.67;100.00;97450.64;109208;1254;74562;-79
2023/02/21 08:45:06;;;;;;;2.00;1.20;;;;;;;9.76;100.00;97456.60;109183;1254;59335;-75
2023/02/21 08:47:35;;;;;;;2.10;1.20;;;;;;;9.78;99.89;97449.65;108092;1254;72930;-74
2023/02/21 08:50:02;;;;;;;4.40;1.90;;;;;;;9.82;100.00;97454.74;108332;1254;59416;-77
2023/02/21 08:52:28;;;;;;;2.10;1.30;;;;;;;9.88;99.98;97448.02;107386;1254;61249;-77
2023/02/21 08:54:55;;;;;;;4.40;1.20;;;;;;;9.87;99.78;97457.02;107097;1254;75420;-78
2023/02/21 08:57:21;;;;;;;3.10;1.40;;;;;;;9.94;99.45;97452.95;106938;1256;61104;-77
2023/02/21 08:59:48;;;;;;;3.30;1.40;;;;;;;9.98;99.19;97451.52;106179;1259;61274;-77
2023/02/21 09:02:16;;;;;;;2.00;1.30;;;;;;;9.96;98.54;97464.70;106348;1258;61316;-78
2023/02/21 09:04:43;;;;;;;4.00;1.50;;;;;;;9.94;98.48;97457.00;106700;1254;61164;-77
2023/02/21 09:07:12;;;;;;;4.50;1.30;;;;;;;10.02;98.48;97462.20;107370;1254;74572;-77
2023/02/21 09:09:38;;;;;;;;;;;;;;;10.07;98.03;97464.58;106404;1254;71761;-77
2023/02/21 09:12:08;;;;;;;3.40;1.30;;;;;;;10.00;97.91;97472.23;106051;1256;72576;-78
2023/02/21 09:14:35;;;;;;;3.40;1.90;;;;;;;9.97;98.06;97484.23;108226;1254;62166;-77
2023/02/21 09:17:03;;;;;;;2.10;1.10;;;;;;;9.91;97.33;97474.45;108133;1254;61267;-76
2023/02/21 09:19:29;;;;;;;3.80;1.00;;;;;;;9.92;97.40;97491.02;107248;1254;73442;-77
2023/02/21 09:21:56;;;;;;;2.10;1.10;;;;;;;9.97;96.36;97493.17;106528;1257;69789;-77
2023/02/21 09:24:26;;;;;;;2.20;1.30;;;;;;;9.94;96.24;97489.70;107078;1254;73354;-76
2023/02/21 09:26:53;;;;;;;1.30;1.00;;;;;;;9.92;96.34;97486.24;108029;1254;61336;-77
2023/02/21 09:29:20;;;;;;;3.50;1.50;;;;;;;10.03;96.28;97499.86;106192;1254;61784;-78
2023/02/21 09:31:47;;;;;;;2.10;1.30;;;;;;;10.02;95.99;97511.58;106024;1254;74841;-77
2023/02/21 09:34:14;;;;;;;2.40;1.50;;;;;;;9.98;96.53;97504.67;106351;1254;71300;-77
2023/02/21 09:36:41;;;;;;;27.00;10.90;;;;;;;10.03;96.40;97502.97;107861;1254;72663;-77
2023/02/21 09:39:08;;;;;;;2.20;1.60;;;;;;;10.06;96.25;97507.41;106295;1254;61720;-77
2023/02/21 09:41:34;;;;;;;2.10;1.20;;;;;;;10.08;95.71;97501.54;106544;1256;61386;-77
2023/02/21 09:44:01;;;;;;;2.60;1.60;;;;;;;10.10;96.00;97499.84;106006;1254;75317;-77
2023/02/21 09:46:38;;;;;;;2.60;1.50;;;;;;;10.11;96.05;97505.73;108431;1254;70308;-77
2023/02/21 09:49:10;;;;;;;3.10;1.70;;;;;;;10.07;96.06;97515.30;106186;1254;71430;-78
2023/02/21 09:51:40;;;;;;;6.00;2.70;;;;;;;10.04;96.01;97515.34;106419;1259;61225;-78
2023/02/21 09:54:17;;;;;;;4.00;1.70;;;;;;;10.00;96.18;97520.58;106307;1254;61228;-78
2023/02/21 09:56:43;;;;;;;3.40;2.30;;;;;;;10.02;95.53;97534.95;107284;1254;75372;-78
2023/02/21 09:59:10;;;;;;;4.20;1.60;;;;;;;10.02;95.51;97525.33;106866;1254;61250;-78
2023/02/21 10:01:59;;;;;;;3.60;2.00;;;;;;;10.10;95.01;97523.63;107096;1256;71429;-78
2023/02/21 10:04:46;;;;;;;3.90;2.10;;;;;;;10.26;94.47;97528.31;106724;1255;61339;-77
2023/02/21 10:07:26;;;;;;;3.70;2.00;;;;;;;10.51;92.85;97522.98;107473;1261;61333;-78
2023/02/21 10:10:01;;;;;;;3.40;2.30;;;;;;;10.81;91.73;97513.89;106652;1255;75152;-77
2023/02/21 10:12:43;;;;;;;5.70;3.00;;;;;;;10.95;90.72;97523.73;106271;1254;71055;-77
2023/02/21 10:15:25;;;;;;;4.70;2.50;;;;;;;10.87;89.56;97509.37;106673;1260;72560;-77
2023/02/21 10:18:32;;;;;;;2.80;1.60;;;;;;;11.01;90.48;97515.92;106550;1257;61387;-79
2023/02/21 10:21:03;;;;;;;1.90;1.30;;;;;;;11.03;89.52;97515.48;106039;1259;63166;-78
2023/02/21 10:23:46;;;;;;;4.10;1.70;;;;;;;10.98;90.16;97516.30;106103;1254;73862;-78
2023/02/21 10:26:17;;;;;;;3.90;1.80;;;;;;;10.85;90.94;97522.46;108315;1254;71090;-78
2023/02/21 10:28:43;;;;;;;3.60;2.00;;;;;;;10.67;92.52;97523.83;106116;1253;70910;-78
2023/02/21 10:31:32;;;;;;;4.20;2.30;;;;;;;10.53;93.58;97534.22;106103;1254;61285;-77
2023/02/21 10:33:59;;;;;;;3.70;2.20;;;;;;;10.42;95.03;97527.86;106595;1254;61255;-77
2023/02/21 10:36:26;;;;;;;3.80;2.30;;;;;;;10.38;95.94;97531.70;108597;1257;73749;-75
2023/02/21 10:39:05;;;;;;;2.60;1.60;;;;;;;10.18;95.79;97525.09;106928;1254;69997;-77
2023/02/21 10:41:33;;;;;;;6.80;1.90;;;;;;;10.02;96.52;97520.98;106108;1259;71694;-77
2023/02/21 10:44:12;;;;;;;6.60;2.90;;;;;;;9.97;96.85;97522.55;106504;1254;61256;-78
2023/02/21 10:46:42;;;;;;;3.90;2.00;;;;;;;9.92;98.03;97519.59;107902;1254;60239;-77
2023/02/21 10:49:23;;;;;;;7.60;3.40;;;;;;;9.99;98.43;97528.92;107100;1256;74561;-77
2023/02/21 10:52:10;;;;;;;3.20;1.90;;;;;;;9.96;98.58;97523.66;106111;1259;71527;-78
2023/02/21 10:54:36;;;;;;;5.70;2.80;;;;;;;10.05;98.87;97511.64;106830;1254;73602;-77
2023/02/21 10:57:05;;;;;;;3.60;2.10;;;;;;;10.13;98.40;97511.71;107902;1257;59938;-78
2023/02/21 10:59:32;;;;;;;;;;;;;;;10.19;98.65;97517.50;106263;1254;61411;-77
2023/02/21 11:02:01;;;;;;;4.00;2.40;;;;;;;10.29;98.60;97512.80;106666;1257;74531;-78
2023/02/21 11:04:30;;;;;;;4.90;2.80;;;;;;;10.36;98.33;97512.34;106537;1254;69705;-78
2023/02/21 11:07:03;;;;;;;4.60;3.30;;;;;;;10.39;98.06;97508.11;107655;1256;71543;-78
2023/02/21 11:09:31;;;;;;;3.30;2.00;;;;;;;10.28;97.98;97519.31;106044;1260;61116;-78
2023/02/21 11:12:04;;;;;;;3.80;2.60;;;;;;;10.17;98.52;97526.18;106398;1258;61251;-78
2023/02/21 11:14:32;;;;;;;9.40;7.80;;;;;;;10.03;99.56;97527.59;106594;1253;74896;-78
2023/02/21 11:17:21;;;;;;;4.50;2.60;;;;;;;9.93;99.52;97525.85;108875;1254;69960;-76
2023/02/21 11:19:47;;;;;;;;;;;;;;;9.83;99.92;97532.77;109244;1254;71539;-76
2023/02/21 11:22:14;;;;;;;4.60;2.50;;;;;;;9.81;100.00;97526.36;109231;1254;58882;-76
2023/02/21 11:24:54;;;;;;;4.80;3.40;;;;;;;9.87;100.00;97532.14;106430;1260;61238;-78
2023/02/21 11:27:21;;;;;;;7.30;3.80;;;;;;;9.79;100.00;97530.27;109174;1256;74563;-77
2023/02/21 11:29:48;;;;;;;2.90;2.20;;;;;;;9.78;100.00;97531.75;109249;1254;69974;-77
2023/02/21 11:32:22;;;;;;;3.30;2.00;;;;;;;9.81;100.00;97524.84;108202;1258;72537;-76
2023/02/21 11:34:49;;;;;;;5.50;2.90;;;;;;;9.80;100.00;97530.91;106810;1254;61257;-77
2023/02/21 11:37:15;;;;;;;16.60;9.50;;;;;;;9.82;100.00;97536.19;107303;1254;59366;-76
2023/02/21 11:39:45;;;;;;;19.10;12.10;;;;;;;9.88;100.00;97525.42;106264;1254;61333;-76
2023/02/21 11:42:33;;;;;;;21.00;11.20;;;;;;;9.95;100.00;97525.95;106918;1254;71134;-77
2023/02/21 11:45:09;;;;;;;16.40;11.00;;;;;;;9.98;100.00;97518.42;107058;1254;72507;-77
2023/02/21 11:47:45;;;;;;;14.60;9.10;;;;;;;9.98;100.00;97515.41;106908;1256;61286;-78
2023/02/21 11:50:25;;;;;;;6.20;3.60;;;;;;;10.03;100.00;97518.01;106498;1254;61228;-78
2023/02/21 11:52:58;;;;;;;6.60;4.10;;;;;;;10.14;100.00;97520.36;106168;1259;74528;-77
2023/02/21 11:55:25;;;;;;;5.70;2.40;;;;;;;10.32;100.00;97524.13;107566;1254;70903;-75
2023/02/21 11:58:05;;;;;;;6.20;2.60;;;;;;;10.50;100.00;97525.65;106332;1254;71852;-78
2023/02/21 12:01:01;;;;;;;6.90;2.80;;;;;;;10.60;100.00;97523.80;106514;1254;61208;-77
2023/02/21 12:03:49;;;;;;;4.20;2.60;;;;;;;10.53;100.00;97524.42;106490;1254;61224;-77
2023/02/21 12:06:19;;;;;;;6.10;3.40;;;;;;;10.43;100.00;97527.46;108463;1254;74475;-75
2023/02/21 12:09:11;;;;;;;28.40;18.70;;;;;;;10.36;100.00;97522.85;106080;1254;199467;-76
2023/02/21 12:11:58;;;;;;;10.60;8.10;;;;;;;10.33;100.00;97534.80;105934;1254;72601;-78
2023/02/21 12:14:25;;;;;;;9.50;6.00;;;;;;;10.31;100.00;97533.09;106795;1258;61133;-78
2023/02/21 12:17:13;;;;;;;13.70;8.40;;;;;;;10.25;100.00;97535.48;108031;1254;61201;-77
2023/02/21 12:19:50;;;;;;;13.50;6.80;;;;;;;10.21;100.00;97535.52;106342;1254;75802;-78
2023/02/21 12:22:55;;;;;;;5.60;3.60;;;;;;;10.20;100.00;97534.17;106503;1254;70117;-77
2023/02/21 12:25:59;;;;;;;13.90;9.20;;;;;;;10.37;100.00;97538.43;107558;1254;72898;-77
2023/02/21 12:28:58;;;;;;;86.90;40.90;;;;;;;10.41;100.00;97536.00;106340;1259;61337;-78
2023/02/21 12:31:35;;;;;;;8.30;5.10;;;;;;;10.31;99.93;97530.86;106204;1261;61237;-77
2023/02/21 12:34:17;;;;;;;5.40;2.90;;;;;;;10.20;100.00;97542.40;106277;1254;74800;-76
2023/02/21 12:37:09;;;;;;;9.50;4.90;;;;;;;10.09;100.00;97555.52;108138;1257;71021;-77
2023/02/21 12:39:54;;;;;;;3.80;2.90;;;;;;;9.96;100.00;97559.98;106345;1258;71116;-77
2023/02/21 12:43:03;;;;;;;11.80;5.00;;;;;;;9.72;100.00;97571.41;106188;1254;61237;-77
2023/02/21 12:45:43;;;;;;;3.60;2.30;;;;;;;9.61;100.00;97565.30;107124;1254;61192;-77
2023/02/21 12:48:25;;;;;;;49.40;21.60;;;;;;;9.53;100.00;97554.39;106691;1254;74865;-78
2023/02/21 12:50:53;;;;;;;19.70;9.00;;;;;;;9.44;100.00;97555.39;107053;1253;71063;-78
2023/02/21 12:53:24;;;;;;;18.20;7.70;;;;;;;9.43;100.00;97553.29;106456;1258;71482;-77
2023/02/21 12:56:13;;;;;;;10.10;5.40;;;;;;;9.64;100.00;97545.79;108096;1254;59681;-79
2023/02/21 12:58:55;;;;;;;8.20;4.70;;;;;;;9.87;100.00;97535.27;106337;1254;61392;-79
2023/02/21 13:01:39;;;;;;;8.70;5.40;;;;;;;10.13;100.00;97531.05;106404;1255;74762;-79
2023/02/21 13:04:21;;;;;;;6.20;2.50;;;;;;;10.40;99.71;97531.40;106655;1254;70849;-77
2023/02/21 13:06:56;;;;;;;45.00;19.70;;;;;;;10.60;97.81;97529.91;107585;1254;73362;-76
2023/02/21 13:09:33;;;;;;;15.50;7.30;;;;;;;10.77;96.09;97526.10;106170;1260;61337;-76
2023/02/21 13:12:31;;;;;;;10.60;7.80;;;;;;;10.77;94.31;97529.36;106021;1261;61235;-78
2023/02/21 13:15:00;;;;;;;5.90;3.40;;;;;;;10.70;94.96;97535.35;109002;1254;73999;-77
2023/02/21 13:17:27;;;;;;;9.20;5.20;;;;;;;10.55;95.63;97540.32;109058;1254;71056;-76
2023/02/21 13:19:59;;;;;;;5.60;3.50;;;;;;;10.40;96.22;97550.58;109204;1254;72592;-75
2023/02/21 13:25:58;;;;;;;6.40;3.50;;;;;;;10.06;97.99;97547.63;108572;1254;61142;-75
2023/02/21 13:28:27;;;;;;;14.60;7.90;;;;;;;10.11;98.14;97551.77;106171;1254;76450;-76
2023/02/21 13:31:01;;;;;;;7.40;4.60;;;;;;;10.08;98.33;97548.81;106253;1254;71098;-77
2023/02/21 13:33:44;;;;;;;19.40;9.70;;;;;;;10.01;98.89;97548.30;106214;1254;71449;-76
2023/02/21 13:36:31;;;;;;;18.30;9.60;;;;;;;9.98;99.18;97550.15;108130;1255;59149;-76
2023/02/21 13:39:01;;;;;;;13.10;6.70;;;;;;;9.98;99.50;97542.27;106381;1254;61243;-77
2023/02/21 13:41:32;;;;;;;17.90;7.40;;;;;;;10.03;99.98;97551.35;106336;1254;73487;-76
2023/02/21 13:43:58;;;;;;;6.60;3.30;;;;;;;10.01;100.00;97554.30;106422;1254;70585;-76
2023/02/21 13:46:45;;;;;;;36.50;19.40;;;;;;;9.92;100.00;97554.87;108232;1254;61126;-76
2023/02/21 13:49:37;;;;;;;16.70;8.60;;;;;;;9.85;100.00;97553.92;106560;1254;61221;-76
2023/02/21 13:52:18;;;;;;;18.60;10.60;;;;;;;9.73;100.00;97558.16;106349;1254;60285;-76
2023/02/21 13:55:10;;;;;;;8.50;4.80;;;;;;;9.62;100.00;97570.70;106815;1254;73690;-76
2023/02/21 13:57:53;;;;;;;10.00;6.00;;;;;;;9.48;100.00;97575.48;107355;1258;70013;-76
2023/02/21 14:00:28;;;;;;;15.10;8.40;;;;;;;9.40;100.00;97573.59;105971;1262;72658;-77
2023/02/21 14:03:08;;;;;;;12.00;5.10;;;;;;;9.26;100.00;97570.13;106397;1255;61221;-77
2023/02/21 14:05:51;;;;;;;9.80;6.60;;;;;;;9.20;100.00;97568.10;106883;1254;61243;-77